createdAt,value
2022-12-01T00:01:10.152Z,99196.34
2022-12-01T00:03:36.634Z,99194.66
2022-12-01T00:06:05.975Z,99194.78
2022-12-01T00:08:34.059Z,99193.53
2022-12-01T00:11:09.412Z,99189.53
2022-12-01T00:13:36.579Z,99193.53
2022-12-01T00:16:14.389Z,99188.00
2022-12-01T00:18:41.182Z,99185.00
2022-12-01T00:21:14.834Z,99186.56
2022-12-01T00:23:48.997Z,99179.31
2022-12-01T00:26:16.704Z,99185.69
2022-12-01T00:28:43.674Z,99185.81
2022-12-01T00:31:11.885Z,99185.81
2022-12-01T00:33:39.182Z,99191.34
2022-12-01T00:36:06.319Z,99190.72
2022-12-01T00:38:33.443Z,99189.63
2022-12-01T00:40:59.869Z,99192.84
2022-12-01T00:43:26.230Z,99187.53
2022-12-01T00:45:52.641Z,99193.34
2022-12-01T00:48:19.202Z,99196.53
2022-12-01T00:50:45.915Z,99188.56
2022-12-01T00:53:12.323Z,99191.56
2022-12-01T00:55:40.292Z,99198.34
2022-12-01T00:58:07.553Z,99203.13
2022-12-01T01:00:34.479Z,99193.03
2022-12-01T01:03:01.367Z,99194.53
2022-12-01T01:05:27.759Z,99201.44
2022-12-01T01:07:54.212Z,99203.50
2022-12-01T01:10:20.749Z,99202.03
2022-12-01T01:12:47.223Z,99213.00
2022-12-01T01:15:13.689Z,99208.25
2022-12-01T01:17:40.143Z,99211.47
2022-12-01T01:20:07.068Z,99205.19
2022-12-01T01:22:35.094Z,99210.75
2022-12-01T01:25:01.654Z,99205.50
2022-12-01T01:27:28.033Z,99214.28
2022-12-01T01:29:54.411Z,99217.41
2022-12-01T01:32:20.925Z,99217.19
2022-12-01T01:34:47.432Z,99223.97
2022-12-01T01:37:13.853Z,99225.94
2022-12-01T01:39:40.200Z,99216.94
2022-12-01T01:42:06.632Z,99226.69
2022-12-01T01:44:48.820Z,99226.91
2022-12-01T01:47:18.753Z,99234.59
2022-12-01T01:49:45.336Z,99228.97
2022-12-01T01:52:12.026Z,99231.50
2022-12-01T01:54:42.418Z,99222.72
2022-12-01T01:57:11.820Z,99229.44
2022-12-01T01:59:45.710Z,99224.56
2022-12-01T02:02:13.195Z,99220.34
2022-12-01T02:04:42.386Z,99222.50
2022-12-01T02:07:10.622Z,99223.69
2022-12-01T02:09:37.032Z,99215.91
2022-12-01T02:12:32.816Z,99220.78
2022-12-01T02:15:06.597Z,99219.38
2022-12-01T02:17:55.875Z,99222.22
2022-12-01T02:20:46.879Z,99226.03
2022-12-01T02:23:50.980Z,99223.06
2022-12-01T02:26:54.977Z,99226.78
2022-12-01T02:29:33.429Z,99223.88
2022-12-01T02:32:33.693Z,99222.81
2022-12-01T02:35:21.848Z,99228.56
2022-12-01T02:38:06.978Z,99222.50
2022-12-01T02:40:59.662Z,99224.50
2022-12-01T02:43:41.893Z,99223.63
2022-12-01T02:46:23.775Z,99223.69
2022-12-01T02:48:54.019Z,99226.44
2022-12-01T02:51:26.204Z,99227.09
2022-12-01T02:53:53.311Z,99219.53
2022-12-01T02:56:21.965Z,99227.72
2022-12-01T02:58:48.363Z,99230.19
2022-12-01T03:01:43.062Z,99229.69
2022-12-01T03:04:26.373Z,99225.53
2022-12-01T03:07:12.020Z,99230.13
2022-12-01T03:09:45.049Z,99227.59
2022-12-01T03:12:37.569Z,99229.25
2022-12-01T03:15:14.063Z,99222.34
2022-12-01T03:17:54.723Z,99231.91
2022-12-01T03:21:04.817Z,99227.00
2022-12-01T03:23:35.583Z,99231.47
2022-12-01T03:26:06.966Z,99227.13
2022-12-01T03:28:39.912Z,99225.81
2022-12-01T03:31:11.776Z,99222.59
2022-12-01T03:33:46.550Z,99225.81
2022-12-01T03:36:27.706Z,99224.59
2022-12-01T03:39:00.212Z,99230.09
2022-12-01T03:41:32.208Z,99223.09
2022-12-01T03:44:11.084Z,99225.59
2022-12-01T03:46:53.840Z,99227.34
2022-12-01T03:49:22.132Z,99228.28
2022-12-01T03:51:58.502Z,99224.41
2022-12-01T03:54:33.696Z,99232.38
2022-12-01T03:57:09.758Z,99227.22
2022-12-01T03:59:37.738Z,99228.91
2022-12-01T04:02:07.211Z,99240.59
2022-12-01T04:04:34.094Z,99243.06
2022-12-01T04:07:00.618Z,99232.59
2022-12-01T04:09:27.014Z,99240.94
2022-12-01T04:12:11.913Z,99241.09
2022-12-01T04:14:38.432Z,99240.59
2022-12-01T04:17:04.869Z,99242.09
2022-12-01T04:19:32.010Z,99230.19
2022-12-01T04:21:58.362Z,99240.97
2022-12-01T04:24:24.700Z,99237.28
2022-12-01T04:26:51.099Z,99237.09
2022-12-01T04:29:17.644Z,99239.75
2022-12-01T04:31:44.160Z,99241.28
2022-12-01T04:34:11.093Z,99236.00
2022-12-01T04:36:37.550Z,99246.28
2022-12-01T04:39:04.370Z,99243.34
2022-12-01T04:41:30.830Z,99239.25
2022-12-01T04:43:57.261Z,99239.13
2022-12-01T04:46:24.793Z,99245.03
2022-12-01T04:48:51.994Z,99242.94
2022-12-01T04:51:18.582Z,99244.06
2022-12-01T04:53:45.151Z,99234.34
2022-12-01T04:56:11.548Z,99239.53
2022-12-01T04:58:37.945Z,99237.09
2022-12-01T05:01:10.983Z,99231.03
2022-12-01T05:03:39.503Z,99234.81
2022-12-01T05:06:14.679Z,99238.56
2022-12-01T05:08:41.742Z,99242.91
2022-12-01T05:11:11.761Z,99248.50
2022-12-01T05:13:43.486Z,99248.69
2022-12-01T05:16:12.169Z,99240.44
2022-12-01T05:18:38.961Z,99244.75
2022-12-01T05:21:07.526Z,99248.41
2022-12-01T05:23:35.669Z,99247.28
2022-12-01T05:26:03.487Z,99250.59
2022-12-01T05:28:30.245Z,99250.78
2022-12-01T05:30:56.789Z,99250.44
2022-12-01T05:33:25.357Z,99252.06
2022-12-01T05:35:52.364Z,99253.34
2022-12-01T05:38:19.448Z,99246.44
2022-12-01T05:40:53.773Z,99248.13
2022-12-01T05:43:27.134Z,99254.09
2022-12-01T05:45:56.551Z,99244.34
2022-12-01T05:48:23.374Z,99253.25
2022-12-01T05:50:49.837Z,99244.94
2022-12-01T05:53:16.385Z,99254.38
2022-12-01T05:55:42.826Z,99254.25
2022-12-01T05:58:09.925Z,99253.31
2022-12-01T06:00:42.250Z,99257.19
2022-12-01T06:03:11.888Z,99257.56
2022-12-01T06:05:38.285Z,99263.03
2022-12-01T06:08:04.779Z,99260.94
2022-12-01T06:10:31.279Z,99264.88
2022-12-01T06:12:57.714Z,99261.72
2022-12-01T06:15:24.163Z,99258.13
2022-12-01T06:17:50.667Z,99273.22
2022-12-01T06:20:17.604Z,99269.50
2022-12-01T06:22:44.117Z,99269.69
2022-12-01T06:25:10.930Z,99270.53
2022-12-01T06:27:37.322Z,99272.97
2022-12-01T06:30:04.642Z,99281.00
2022-12-01T06:32:31.124Z,99282.13
2022-12-01T06:34:57.495Z,99282.03
2022-12-01T06:37:23.964Z,99284.41
2022-12-01T06:39:50.777Z,99285.13
2022-12-01T06:42:17.488Z,99285.66
2022-12-01T06:44:43.865Z,99286.41
2022-12-01T06:47:10.425Z,99288.50
2022-12-01T06:49:37.823Z,99286.03
2022-12-01T06:52:05.068Z,99291.63
2022-12-01T06:54:31.682Z,99287.19
2022-12-01T06:56:58.571Z,99294.16
2022-12-01T06:59:26.082Z,99299.91
2022-12-01T07:01:53.172Z,99305.56
2022-12-01T07:04:19.925Z,99311.28
2022-12-01T07:06:46.417Z,99303.03
2022-12-01T07:09:12.818Z,99310.09
2022-12-01T07:11:39.361Z,99306.63
2022-12-01T07:14:05.864Z,99308.59
2022-12-01T07:16:32.399Z,99316.84
2022-12-01T07:18:59.982Z,99318.06
2022-12-01T07:21:26.519Z,99319.13
2022-12-01T07:23:53.370Z,99332.03
2022-12-01T07:26:19.855Z,99324.25
2022-12-01T07:28:46.322Z,99332.28
2022-12-01T07:31:18.830Z,99331.44
2022-12-01T07:33:45.711Z,99331.59
2022-12-01T07:36:13.029Z,99329.88
2022-12-01T07:38:39.915Z,99330.72
2022-12-01T07:41:12.293Z,99343.38
2022-12-01T07:43:39.103Z,99335.03
2022-12-01T07:46:22.347Z,99341.25
2022-12-01T07:48:49.962Z,99348.63
2022-12-01T07:51:17.130Z,99339.97
2022-12-01T07:53:49.276Z,99345.88
2022-12-01T07:56:16.851Z,99343.78
2022-12-01T07:58:43.768Z,99345.31
2022-12-01T08:01:13.147Z,99350.66
2022-12-01T08:03:40.211Z,99348.88
2022-12-01T08:06:07.738Z,99350.28
2022-12-01T08:08:35.926Z,99347.88
2022-12-01T08:11:23.600Z,99351.72
2022-12-01T08:13:51.407Z,99356.28
2022-12-01T08:16:20.191Z,99357.25
2022-12-01T08:18:46.809Z,99351.59
2022-12-01T08:21:15.708Z,99351.09
2022-12-01T08:23:42.737Z,99356.16
2022-12-01T08:26:14.217Z,99359.28
2022-12-01T08:28:41.784Z,99362.16
2022-12-01T08:31:33.176Z,99361.91
2022-12-01T08:33:59.722Z,99366.91
2022-12-01T08:36:26.347Z,99374.47
2022-12-01T08:38:55.164Z,99378.94
2022-12-01T08:41:22.643Z,99375.38
2022-12-01T08:43:58.109Z,99380.06
2022-12-01T08:46:27.289Z,99371.66
2022-12-01T08:48:55.104Z,99378.16
2022-12-01T08:51:21.629Z,99368.13
2022-12-01T08:53:49.999Z,99375.91
2022-12-01T08:56:38.987Z,99369.34
2022-12-01T08:59:06.019Z,99371.28
2022-12-01T09:01:33.276Z,99372.13
2022-12-01T09:04:08.806Z,99364.78
2022-12-01T09:06:40.808Z,99371.38
2022-12-01T09:09:09.698Z,99373.41
2022-12-01T09:11:36.806Z,99373.28
2022-12-01T09:14:03.491Z,99377.34
2022-12-01T09:16:30.442Z,99374.44
2022-12-01T09:18:57.055Z,99380.75
2022-12-01T09:21:30.406Z,99373.97
2022-12-01T09:23:56.977Z,99372.00
2022-12-01T09:26:24.246Z,99374.06
2022-12-01T09:28:54.910Z,99376.97
2022-12-01T09:31:23.442Z,99373.13
2022-12-01T09:34:01.879Z,99374.81
2022-12-01T09:36:30.255Z,99380.84
2022-12-01T09:38:57.282Z,99368.31
2022-12-01T09:41:31.171Z,99372.19
2022-12-01T09:44:28.152Z,99369.84
2022-12-01T09:47:00.514Z,99362.34
2022-12-01T09:49:46.207Z,99368.78
2022-12-01T09:52:16.258Z,99369.16
2022-12-01T09:54:43.082Z,99363.88
2022-12-01T09:57:40.433Z,99363.22
2022-12-01T10:00:14.468Z,99356.31
2022-12-01T10:03:17.450Z,99357.16
2022-12-01T10:09:24.496Z,99343.03
2022-12-01T10:11:55.048Z,99339.63
2022-12-01T10:14:22.192Z,99332.56
2022-12-01T10:17:23.132Z,99339.22
2022-12-01T10:20:19.083Z,99342.88
2022-12-01T10:22:50.872Z,99341.47
2022-12-01T10:25:17.380Z,99339.09
2022-12-01T10:28:04.216Z,99335.75
2022-12-01T10:30:30.754Z,99334.59
2022-12-01T10:33:17.254Z,99335.03
2022-12-01T10:35:43.831Z,99336.09
2022-12-01T10:38:24.178Z,99336.38
2022-12-01T10:40:51.657Z,99333.00
2022-12-01T10:43:18.080Z,99321.94
2022-12-01T10:45:45.486Z,99328.38
2022-12-01T10:48:17.492Z,99325.94
2022-12-01T10:50:54.460Z,99321.34
2022-12-01T10:53:31.994Z,99317.44
2022-12-01T10:56:17.193Z,99323.06
2022-12-01T10:58:48.668Z,99323.53
2022-12-01T11:01:35.870Z,99315.53
2022-12-01T11:04:44.989Z,99314.28
2022-12-01T11:07:24.910Z,99312.59
2022-12-01T11:10:03.423Z,99313.81
2022-12-01T11:12:30.478Z,99303.69
2022-12-01T11:14:57.647Z,99298.25
2022-12-01T11:17:36.107Z,99301.00
2022-12-01T11:20:27.676Z,99299.19
2022-12-01T11:23:09.569Z,99295.16
2022-12-01T11:25:36.601Z,99294.88
2022-12-01T11:28:04.446Z,99293.75
2022-12-01T11:30:32.800Z,99288.94
2022-12-01T11:33:01.835Z,99288.94
2022-12-01T11:35:32.039Z,99298.56
2022-12-01T11:40:52.016Z,99290.34
2022-12-01T11:43:27.419Z,99287.22
2022-12-01T11:45:55.872Z,99284.69
2022-12-01T11:48:25.824Z,99284.41
2022-12-01T11:51:15.729Z,99290.91
2022-12-01T11:53:43.485Z,99292.91
2022-12-01T11:56:12.874Z,99294.22
2022-12-01T11:58:39.644Z,99290.16
2022-12-01T12:01:25.602Z,99283.59
2022-12-01T12:04:05.383Z,99277.09
2022-12-01T12:06:44.120Z,99277.56
2022-12-01T12:09:10.599Z,99284.91
2022-12-01T12:11:46.616Z,99281.56
2022-12-01T12:14:48.562Z,99282.72
2022-12-01T12:17:33.793Z,99279.97
2022-12-01T12:20:36.278Z,99282.75
2022-12-01T12:23:24.807Z,99287.13
2022-12-01T12:26:07.348Z,99289.50
2022-12-01T12:28:55.136Z,99284.78
2022-12-01T12:31:43.590Z,99279.31
2022-12-01T12:34:23.663Z,99275.78
2022-12-01T12:36:50.147Z,99287.47
2022-12-01T12:39:34.871Z,99282.53
2022-12-01T12:42:04.099Z,99273.50
2022-12-01T12:44:39.671Z,99270.91
2022-12-01T12:47:40.204Z,99269.22
2022-12-01T12:50:21.680Z,99272.41
2022-12-01T12:52:53.791Z,99280.97
2022-12-01T12:55:22.713Z,99281.91
2022-12-01T12:57:56.856Z,99277.31
2022-12-01T13:00:28.356Z,99274.19
2022-12-01T13:03:06.064Z,99271.84
2022-12-01T13:05:43.923Z,99276.06
2022-12-01T13:08:18.522Z,99273.75
2022-12-01T13:10:47.694Z,99272.06
2022-12-01T13:13:17.136Z,99272.75
2022-12-01T13:15:44.221Z,99272.56
2022-12-01T13:18:25.437Z,99273.53
2022-12-01T13:20:54.260Z,99272.56
2022-12-01T13:23:21.952Z,99254.41
2022-12-01T13:25:54.014Z,99263.50
2022-12-01T13:28:27.648Z,99266.16
2022-12-01T13:30:58.904Z,99267.19
2022-12-01T13:33:25.665Z,99255.78
2022-12-01T13:36:22.499Z,99257.41
2022-12-01T13:38:40.760Z,99264.72
2022-12-01T13:41:10.412Z,99259.34
2022-12-01T13:43:45.462Z,99260.81
2022-12-01T13:46:44.220Z,99253.06
2022-12-01T13:49:43.737Z,99257.00
2022-12-01T13:52:22.262Z,99243.63
2022-12-01T13:55:15.352Z,99248.25
2022-12-01T13:57:49.350Z,99257.22
2022-12-01T14:00:27.014Z,99249.56
2022-12-01T14:03:12.047Z,99244.28
2022-12-01T14:05:53.680Z,99243.97
2022-12-01T14:08:29.191Z,99242.31
2022-12-01T14:11:18.332Z,99241.59
2022-12-01T14:14:03.123Z,99244.63
2022-12-01T14:16:58.917Z,99248.22
2022-12-01T14:20:08.423Z,99251.06
2022-12-01T14:22:39.340Z,99249.09
2022-12-01T14:25:29.047Z,99253.91
2022-12-01T14:27:59.786Z,99256.72
2022-12-01T14:30:45.796Z,99244.69
2022-12-01T14:33:43.439Z,99241.84
2022-12-01T14:36:24.878Z,99243.19
2022-12-01T14:38:54.662Z,99246.78
2022-12-01T14:41:26.281Z,99239.31
2022-12-01T14:44:03.835Z,99243.63
2022-12-01T14:46:52.910Z,99236.44
2022-12-01T14:49:31.413Z,99243.00
2022-12-01T14:52:06.923Z,99233.72
2022-12-01T14:54:43.448Z,99242.41
2022-12-01T14:57:16.533Z,99232.03
2022-12-01T14:59:43.504Z,99239.97
2022-12-01T15:02:12.146Z,99234.00
2022-12-01T15:05:12.531Z,99237.72
2022-12-01T15:07:41.226Z,99238.16
2022-12-01T15:10:24.591Z,99232.59
2022-12-01T15:12:52.602Z,99233.28
2022-12-01T15:15:25.416Z,99221.47
2022-12-01T15:17:55.432Z,99231.19
2022-12-01T15:20:29.670Z,99231.41
2022-12-01T15:22:57.376Z,99226.03
2022-12-01T15:25:27.730Z,99235.66
2022-12-01T15:28:13.118Z,99231.63
2022-12-01T15:30:41.862Z,99229.97
2022-12-01T15:33:24.036Z,99225.47
2022-12-01T15:35:54.451Z,99231.72
2022-12-01T15:38:28.699Z,99239.81
2022-12-01T15:43:43.245Z,99244.69
2022-12-01T15:46:12.930Z,99243.69
2022-12-01T15:48:40.004Z,99249.97
2022-12-01T15:51:37.993Z,99248.97
2022-12-01T15:54:04.651Z,99248.28
2022-12-01T15:56:41.532Z,99248.00
2022-12-01T15:59:13.800Z,99254.13
2022-12-01T16:01:42.987Z,99246.41
2022-12-01T16:04:27.971Z,99253.91
2022-12-01T16:06:57.118Z,99252.63
2022-12-01T16:09:32.007Z,99258.00
2022-12-01T16:12:17.605Z,99245.25
2022-12-01T16:14:53.192Z,99251.47
2022-12-01T16:17:19.705Z,99253.47
2022-12-01T16:19:46.155Z,99259.50
2022-12-01T16:22:21.732Z,99255.44
2022-12-01T16:24:55.267Z,99264.50
2022-12-01T16:27:28.076Z,99272.59
2022-12-01T16:29:57.955Z,99264.50
2022-12-01T16:32:41.323Z,99267.69
2022-12-01T16:35:30.506Z,99273.72
2022-12-01T16:37:58.318Z,99272.47
2022-12-01T16:40:25.784Z,99277.88
2022-12-01T16:42:52.478Z,99271.09
2022-12-01T16:45:19.813Z,99276.28
2022-12-01T16:47:48.865Z,99273.91
2022-12-01T16:50:17.290Z,99268.16
2022-12-01T16:52:45.236Z,99270.31
2022-12-01T16:55:27.263Z,99273.53
2022-12-01T16:57:53.828Z,99277.00
2022-12-01T17:00:20.690Z,99271.16
2022-12-01T17:02:47.461Z,99262.22
2022-12-01T17:05:14.015Z,99260.72
2022-12-01T17:07:40.662Z,99254.13
2022-12-01T17:10:07.718Z,99257.81
2022-12-01T17:12:34.180Z,99259.38
2022-12-01T17:15:00.643Z,99258.53
2022-12-01T17:17:28.409Z,99260.91
2022-12-01T17:19:55.254Z,99258.81
2022-12-01T17:22:21.904Z,99267.56
2022-12-01T17:24:48.767Z,99257.59
2022-12-01T17:27:15.758Z,99257.50
2022-12-01T17:29:46.074Z,99250.72
2022-12-01T17:32:13.757Z,99243.75
2022-12-01T17:34:40.258Z,99240.66
2022-12-01T17:37:06.696Z,99248.28
2022-12-01T17:39:33.278Z,99248.38
2022-12-01T17:41:59.687Z,99249.41
2022-12-01T17:44:26.360Z,99246.41
2022-12-01T17:46:52.933Z,99248.38
2022-12-01T17:49:19.448Z,99252.53
2022-12-01T17:51:46.004Z,99256.09
2022-12-01T17:54:12.628Z,99262.72
2022-12-01T17:56:39.109Z,99261.75
2022-12-01T17:59:05.719Z,99268.84
2022-12-01T18:01:32.428Z,99266.47
2022-12-01T18:03:59.133Z,99265.25
2022-12-01T18:06:26.905Z,99262.78
2022-12-01T18:08:53.978Z,99272.31
2022-12-01T18:11:20.811Z,99273.16
2022-12-01T18:13:49.989Z,99265.16
2022-12-01T18:16:27.082Z,99268.63
2022-12-01T18:18:54.491Z,99274.22
2022-12-01T18:21:23.560Z,99264.03
2022-12-01T18:24:02.743Z,99272.69
2022-12-01T18:26:32.037Z,99269.75
2022-12-01T18:29:07.343Z,99262.91
2022-12-01T18:31:34.947Z,99270.44
2022-12-01T18:34:03.334Z,99266.94
2022-12-01T18:36:32.522Z,99269.69
2022-12-01T18:39:00.229Z,99269.59
2022-12-01T18:41:27.680Z,99268.72
2022-12-01T18:43:54.187Z,99268.94
2022-12-01T18:46:21.550Z,99275.22
2022-12-01T18:48:50.642Z,99264.78
2022-12-01T18:51:18.455Z,99262.81
2022-12-01T18:53:47.816Z,99262.88
2022-12-01T18:56:15.481Z,99251.75
2022-12-01T18:58:42.272Z,99254.22
2022-12-01T19:01:37.754Z,99254.22
2022-12-01T19:04:05.294Z,99256.38
2022-12-01T19:06:34.354Z,99248.84
2022-12-01T19:09:02.328Z,99254.97
2022-12-01T19:11:28.860Z,99257.22
2022-12-01T19:13:56.477Z,99253.91
2022-12-01T19:16:23.192Z,99248.19
2022-12-01T19:18:49.967Z,99249.03
2022-12-01T19:21:18.651Z,99252.31
2022-12-01T19:23:46.394Z,99243.19
2022-12-01T19:26:16.664Z,99250.25
2022-12-01T19:28:45.757Z,99249.47
2022-12-01T19:31:15.452Z,99248.16
2022-12-01T19:33:42.021Z,99257.03
2022-12-01T19:36:18.008Z,99255.53
2022-12-01T19:38:45.163Z,99250.25
2022-12-01T19:41:12.794Z,99240.34
2022-12-01T19:43:40.068Z,99246.41
2022-12-01T19:46:13.134Z,99237.44
2022-12-01T19:48:39.777Z,99244.63
2022-12-01T19:51:06.662Z,99243.94
2022-12-01T19:53:34.276Z,99239.59
2022-12-01T19:56:04.863Z,99243.47
2022-12-01T19:58:34.950Z,99243.47
2022-12-01T20:01:13.494Z,99235.19
2022-12-01T20:03:41.162Z,99241.31
2022-12-01T20:06:16.069Z,99248.94
2022-12-01T20:08:42.941Z,99246.31
2022-12-01T20:11:10.413Z,99241.78
2022-12-01T20:13:39.667Z,99239.97
2022-12-01T20:16:11.755Z,99238.38
2022-12-01T20:18:39.354Z,99244.50
2022-12-01T20:21:28.840Z,99240.75
2022-12-01T20:23:58.190Z,99240.66
2022-12-01T20:26:30.830Z,99240.09
2022-12-01T20:29:04.526Z,99232.16
2022-12-01T20:31:32.547Z,99239.13
2022-12-01T20:34:01.484Z,99231.91
2022-12-01T20:36:28.479Z,99238.84
2022-12-01T20:38:55.528Z,99237.16
2022-12-01T20:41:22.845Z,99234.44
2022-12-01T20:43:49.471Z,99239.22
2022-12-01T20:46:16.064Z,99225.66
2022-12-01T20:48:45.906Z,99233.22
2022-12-01T20:51:13.937Z,99234.44
2022-12-01T20:53:54.492Z,99233.97
2022-12-01T20:56:27.784Z,99233.00
2022-12-01T20:58:54.403Z,99234.69
2022-12-01T21:01:22.426Z,99227.00
2022-12-01T21:03:50.820Z,99223.47
2022-12-01T21:06:18.099Z,99222.84
2022-12-01T21:08:47.062Z,99225.28
2022-12-01T21:11:13.477Z,99223.59
2022-12-01T21:13:43.178Z,99221.44
2022-12-01T21:16:14.338Z,99221.97
2022-12-01T21:18:48.234Z,99221.97
2022-12-01T21:21:22.464Z,99227.25
2022-12-01T21:23:58.345Z,99220.41
2022-12-01T21:26:25.829Z,99231.22
2022-12-01T21:28:55.266Z,99223.88
2022-12-01T21:31:21.763Z,99230.38
2022-12-01T21:33:48.309Z,99227.19
2022-12-01T21:36:20.947Z,99229.44
2022-12-01T21:38:52.960Z,99224.25
2022-12-01T21:41:27.617Z,99231.41
2022-12-01T21:44:02.573Z,99225.09
2022-12-01T21:46:29.799Z,99231.97
2022-12-01T21:48:56.401Z,99230.75
2022-12-01T21:51:24.767Z,99229.16
2022-12-01T21:53:55.678Z,99225.28
2022-12-01T21:56:25.545Z,99226.72
2022-12-01T21:58:53.033Z,99221.97
2022-12-01T22:01:31.099Z,99221.59
2022-12-01T22:04:05.589Z,99226.25
2022-12-01T22:06:38.782Z,99216.91
2022-12-01T22:09:23.468Z,99208.72
2022-12-01T22:12:00.644Z,99221.59
2022-12-01T22:14:34.623Z,99211.34
2022-12-01T22:17:20.508Z,99220.13
2022-12-01T22:19:57.543Z,99210.41
2022-12-01T22:22:26.478Z,99210.41
2022-12-01T22:25:00.940Z,99209.19
2022-12-01T22:27:31.871Z,99211.03
2022-12-01T22:30:07.573Z,99213.63
2022-12-01T22:32:53.870Z,99209.25
2022-12-01T22:35:36.402Z,99207.75
2022-12-01T22:38:05.787Z,99208.72
2022-12-01T22:40:58.595Z,99209.34
2022-12-01T22:43:32.192Z,99205.88
2022-12-01T22:46:16.544Z,99202.50
2022-12-01T22:48:58.048Z,99201.66
2022-12-01T22:51:55.662Z,99203.34
2022-12-01T22:54:27.474Z,99205.59
2022-12-01T22:57:22.856Z,99198.59
2022-12-01T22:59:50.316Z,99194.47
2022-12-01T23:02:22.640Z,99197.50
2022-12-01T23:04:56.999Z,99202.09
2022-12-01T23:07:32.597Z,99194.75
2022-12-01T23:10:14.373Z,99192.78
2022-12-01T23:12:41.139Z,99192.59
2022-12-01T23:15:19.667Z,99191.38
2022-12-01T23:17:46.239Z,99197.03
2022-12-01T23:20:28.039Z,99193.53
2022-12-01T23:22:56.619Z,99185.41
2022-12-01T23:25:24.082Z,99182.78
2022-12-01T23:27:52.535Z,99180.25
2022-12-01T23:30:23.628Z,99177.59
2022-12-01T23:33:03.998Z,99173.56
2022-12-01T23:35:32.713Z,99165.47
2022-12-01T23:38:00.241Z,99166.31
2022-12-01T23:40:33.033Z,99164.63
2022-12-01T23:43:26.982Z,99166.09
2022-12-01T23:46:27.712Z,99148.69
2022-12-01T23:49:01.799Z,99148.47
2022-12-01T23:51:37.106Z,99148.47
2022-12-01T23:54:17.927Z,99145.94
2022-12-01T23:56:50.010Z,99141.34
2022-12-01T23:59:16.786Z,99145.84
